Time;durP1;ratioP1;P1;durP2;ratioP2;P2;SDS_P1;SDS_P2;PMS_P1;PMS_P2;Temp;Humidity;BMP_temperature;BMP_pressure;BME280_temperature;BME280_humidity;BME280_pressure;Samples;Min_cycle;Max_cycle;Signal;HPM_P1;HPM_P2
2021/06/09 00:01:23;;;;;;;19.83;12.55;;;;;;;17.35;47.67;98736.09;5066432;28;20437;-69
2021/06/09 00:03:49;;;;;;;21.60;13.35;;;;;;;17.33;47.62;98740.34;5067890;28;20607;-70
2021/06/09 00:06:14;;;;;;;21.45;13.75;;;;;;;17.31;47.59;98743.44;5066968;28;20048;-70
2021/06/09 00:08:40;;;;;;;21.88;13.38;;;;;;;17.30;48.05;98741.03;5066681;28;20048;-70
2021/06/09 00:11:06;;;;;;;25.80;14.38;;;;;;;17.26;47.61;98740.88;5064592;28;20029;-70
2021/06/09 00:13:33;;;;;;;23.90;13.65;;;;;;;17.26;48.00;98738.09;5061903;28;20117;-70
2021/06/09 00:16:01;;;;;;;25.85;13.10;;;;;;;17.24;48.21;98738.44;5038477;28;20604;-69
2021/06/09 00:18:27;;;;;;;19.58;12.98;;;;;;;17.23;48.24;98739.59;5058803;28;20072;-70
2021/06/09 00:20:53;;;;;;;22.20;13.07;;;;;;;17.22;48.18;98740.75;5065985;28;20054;-69
2021/06/09 00:23:20;;;;;;;21.17;12.95;;;;;;;17.22;48.26;98748.22;5066057;28;20029;-70
2021/06/09 00:25:52;;;;;;;19.05;12.80;;;;;;;17.19;48.02;98744.16;5065992;28;20021;-69
2021/06/09 00:28:17;;;;;;;23.40;13.85;;;;;;;17.17;48.15;98743.69;5065342;28;20028;-70
2021/06/09 00:30:43;;;;;;;23.85;13.00;;;;;;;17.17;48.22;98746.47;5063201;28;20016;-69
2021/06/09 00:33:09;;;;;;;20.45;12.93;;;;;;;17.17;48.27;98735.38;5062932;28;20028;-69
2021/06/09 00:35:35;;;;;;;20.58;13.50;;;;;;;17.17;48.55;98737.31;5059691;28;20616;-70
2021/06/09 00:38:02;;;;;;;23.05;13.15;;;;;;;17.14;48.88;98736.03;5056681;28;20020;-70
2021/06/09 00:40:29;;;;;;;22.00;13.90;;;;;;;17.17;48.98;98731.78;5061697;28;20503;-70
2021/06/09 00:43:07;;;;;;;20.25;14.38;;;;;;;17.17;48.81;98738.16;5065892;28;20027;-69
2021/06/09 00:45:34;;;;;;;24.55;14.55;;;;;;;17.18;49.10;98731.47;5062653;28;20131;-70
2021/06/09 00:47:59;;;;;;;28.60;17.45;;;;;;;17.19;48.86;98735.03;5069526;28;20025;-70
2021/06/09 00:50:25;;;;;;;21.85;14.80;;;;;;;17.19;49.05;98733.09;5070700;28;20037;-69
2021/06/09 00:52:51;;;;;;;26.58;15.38;;;;;;;17.19;49.00;98741.41;5024538;28;20056;-69
2021/06/09 00:55:16;;;;;;;23.67;14.73;;;;;;;17.18;48.70;98737.00;5038261;28;20022;-70
2021/06/09 00:57:42;;;;;;;24.33;15.65;;;;;;;17.20;48.78;98739.44;5017015;28;20116;-70
2021/06/09 01:00:11;;;;;;;22.88;14.30;;;;;;;17.22;49.37;98737.97;5016797;28;20491;-69
2021/06/09 01:02:36;;;;;;;27.98;13.77;;;;;;;17.22;48.97;98734.38;5025268;28;20047;-69
2021/06/09 01:05:04;;;;;;;23.23;14.10;;;;;;;17.23;49.21;98731.28;5025714;28;20450;-70
2021/06/09 01:07:29;;;;;;;21.23;12.85;;;;;;;17.25;49.28;98733.69;5025755;28;20028;-70
2021/06/09 01:09:55;;;;;;;23.20;14.20;;;;;;;17.23;49.20;98730.44;5027763;28;20029;-70
2021/06/09 01:12:22;;;;;;;23.40;14.05;;;;;;;17.22;49.37;98729.66;5025240;28;20029;-72
2021/06/09 01:14:47;;;;;;;26.55;14.07;;;;;;;17.20;49.38;98728.34;5025698;28;20076;-70
2021/06/09 01:17:12;;;;;;;24.80;14.18;;;;;;;17.18;49.44;98725.91;5017938;28;20615;-70
2021/06/09 01:19:38;;;;;;;25.75;14.02;;;;;;;17.18;49.23;98719.53;5015895;28;21025;-70
2021/06/09 01:22:04;;;;;;;21.40;13.95;;;;;;;17.16;49.65;98717.13;5019073;28;20034;-70
2021/06/09 01:24:29;;;;;;;25.63;14.10;;;;;;;17.14;49.47;98724.13;5025339;28;20021;-70
2021/06/09 01:26:55;;;;;;;22.25;13.65;;;;;;;17.09;49.59;98723.19;5025058;28;20168;-70
2021/06/09 01:29:20;;;;;;;24.40;14.73;;;;;;;17.08;49.58;98727.13;5025367;28;20029;-70
2021/06/09 01:31:46;;;;;;;26.83;15.25;;;;;;;17.06;49.85;98723.88;5024752;28;20470;-70
2021/06/09 01:34:11;;;;;;;24.85;14.40;;;;;;;17.06;49.81;98723.88;5025509;28;20060;-70
2021/06/09 01:36:41;;;;;;;20.67;14.05;;;;;;;17.03;49.61;98724.53;5024360;28;20022;-70
2021/06/09 01:39:14;;;;;;;24.55;14.00;;;;;;;16.98;49.93;98724.72;5016878;28;20037;-70
2021/06/09 01:41:49;;;;;;;26.27;15.43;;;;;;;16.96;50.13;98730.56;5015549;28;20026;-70
2021/06/09 01:44:14;;;;;;;24.65;14.73;;;;;;;16.99;50.06;98723.56;5022432;28;20034;-70
2021/06/09 01:46:41;;;;;;;25.02;15.18;;;;;;;16.99;50.45;98726.34;5024340;28;20470;-70
2021/06/09 01:49:07;;;;;;;27.95;14.80;;;;;;;17.00;50.36;98722.41;5025238;28;20047;-70
2021/06/09 01:51:34;;;;;;;24.33;14.32;;;;;;;17.01;50.00;98717.69;5055437;28;20051;-70
2021/06/09 01:54:02;;;;;;;26.05;14.48;;;;;;;17.02;50.14;98717.34;5080309;28;20025;-71
2021/06/09 01:56:27;;;;;;;28.48;15.00;;;;;;;17.02;50.11;98716.53;5064636;28;20388;-70
2021/06/09 01:58:53;;;;;;;24.63;14.57;;;;;;;17.01;50.55;98712.97;5059880;28;20033;-70
2021/06/09 02:01:19;;;;;;;22.40;14.98;;;;;;;16.99;50.67;98712.47;5056529;28;20031;-70
2021/06/09 02:03:45;;;;;;;23.60;14.07;;;;;;;16.99;50.61;98714.41;5057550;28;20017;-69
2021/06/09 02:06:10;;;;;;;22.92;13.95;;;;;;;16.97;50.52;98717.53;5064438;28;20071;-70
2021/06/09 02:08:36;;;;;;;36.13;17.33;;;;;;;16.96;50.54;98711.16;5073918;28;20158;-70
2021/06/09 02:11:01;;;;;;;38.08;19.13;;;;;;;16.93;50.71;98714.56;5090304;28;20175;-70
2021/06/09 02:13:30;;;;;;;41.28;21.17;;;;;;;16.91;50.53;98710.53;5090328;28;20297;-69
2021/06/09 02:15:56;;;;;;;41.58;21.50;;;;;;;16.88;50.79;98711.19;5088978;28;20032;-70
2021/06/09 02:18:24;;;;;;;33.92;17.70;;;;;;;16.82;51.04;98705.81;5091309;28;20378;-70
2021/06/09 02:20:52;;;;;;;27.73;15.48;;;;;;;16.78;50.80;98710.41;5091020;28;20016;-70
2021/06/09 02:23:30;;;;;;;31.52;14.45;;;;;;;16.72;51.13;98711.72;5091298;28;20028;-69
2021/06/09 02:25:57;;;;;;;25.15;15.35;;;;;;;16.69;50.98;98711.59;5092592;28;20024;-70
2021/06/09 02:28:25;;;;;;;37.55;16.90;;;;;;;16.65;50.96;98706.72;5092440;28;20036;-71
2021/06/09 02:30:51;;;;;;;29.48;16.13;;;;;;;16.58;51.03;98708.38;5092266;28;20102;-70
2021/06/09 02:33:20;;;;;;;34.13;16.35;;;;;;;16.52;51.33;98704.94;5092223;28;20126;-69
2021/06/09 02:35:47;;;;;;;32.87;16.77;;;;;;;16.48;51.57;98715.06;5074237;28;20025;-70
2021/06/09 02:38:15;;;;;;;29.83;17.35;;;;;;;16.47;51.32;98719.00;5092012;28;20035;-69
2021/06/09 02:40:42;;;;;;;30.45;16.63;;;;;;;16.44;51.53;98709.38;5092071;28;20053;-69
2021/06/09 02:43:09;;;;;;;30.25;17.08;;;;;;;16.43;51.67;98718.00;5091940;28;20028;-70
2021/06/09 02:45:35;;;;;;;32.28;17.73;;;;;;;16.41;51.95;98717.53;5092254;28;20443;-69
2021/06/09 02:48:05;;;;;;;27.60;16.15;;;;;;;16.33;52.15;98719.16;5091884;28;20107;-69
2021/06/09 02:50:31;;;;;;;33.55;16.52;;;;;;;16.31;51.82;98715.91;5091974;28;20048;-69
2021/06/09 02:52:56;;;;;;;28.98;16.05;;;;;;;16.31;52.12;98724.19;5091984;28;20506;-69
2021/06/09 02:55:49;;;;;;;31.05;15.93;;;;;;;16.28;52.08;98725.69;5091027;28;20024;-69
2021/06/09 02:58:45;;;;;;;30.80;16.17;;;;;;;16.29;52.58;98720.97;5090661;28;20498;-68
2021/06/09 03:01:19;;;;;;;74.43;30.52;;;;;;;16.27;52.15;98720.50;5090520;28;20027;-69
2021/06/09 03:04:02;;;;;;;45.45;21.77;;;;;;;16.22;52.50;98722.28;5090449;28;20107;-69
2021/06/09 03:06:32;;;;;;;38.45;18.13;;;;;;;16.18;52.20;98723.25;5090450;28;20463;-69
2021/06/09 03:09:05;;;;;;;28.13;16.55;;;;;;;16.17;52.22;98721.63;5090317;28;20122;-69
2021/06/09 03:11:42;;;;;;;30.83;15.90;;;;;;;16.17;52.76;98724.38;5091657;28;20024;-69
2021/06/09 03:17:08;;;;;;;40.40;18.95;;;;;;;16.12;52.95;98725.38;5095469;28;20032;-69
2021/06/09 03:20:04;;;;;;;43.55;20.73;;;;;;;16.09;52.77;98725.22;5095358;28;20028;-69
2021/06/09 03:22:32;;;;;;;46.58;21.55;;;;;;;16.05;52.99;98731.41;5095277;28;20449;-69
2021/06/09 03:24:59;;;;;;;42.78;22.10;;;;;;;16.03;53.21;98722.63;5095169;28;20103;-68
2021/06/09 03:27:49;;;;;;;55.75;26.50;;;;;;;16.03;52.76;98728.16;5095107;28;20445;-69
2021/06/09 03:30:17;;;;;;;85.88;35.40;;;;;;;16.03;53.41;98730.94;5095066;28;20509;-69
2021/06/09 03:33:04;;;;;;;114.88;46.90;;;;;;;16.02;53.06;98729.31;5094982;28;20032;-69
2021/06/09 03:35:36;;;;;;;127.53;50.15;;;;;;;16.06;53.49;98730.28;5095056;28;20025;-69
2021/06/09 03:38:06;;;;;;;137.65;54.78;;;;;;;16.04;53.34;98727.03;5095026;28;20362;-68
2021/06/09 03:40:36;;;;;;;142.43;64.13;;;;;;;15.99;54.08;98718.88;5094844;28;20072;-68
2021/06/09 03:43:08;;;;;;;122.90;53.35;;;;;;;15.95;53.91;98728.97;5094870;28;20023;-69
2021/06/09 03:45:39;;;;;;;108.18;49.25;;;;;;;15.90;53.92;98727.16;5094820;28;20492;-69
2021/06/09 03:48:06;;;;;;;87.00;42.55;;;;;;;15.93;54.05;98728.47;5094698;28;20024;-68
2021/06/09 03:50:33;;;;;;;82.10;41.95;;;;;;;15.92;54.48;98735.16;5094481;28;20040;-68
2021/06/09 03:53:02;;;;;;;88.35;47.28;;;;;;;15.95;54.40;98730.91;5092440;28;20039;-69
2021/06/09 03:55:31;;;;;;;93.50;49.22;;;;;;;16.00;54.62;98733.50;5093320;28;20024;-69
2021/06/09 03:57:58;;;;;;;90.82;49.80;;;;;;;15.98;54.46;98733.03;5093919;28;20028;-69
2021/06/09 04:00:25;;;;;;;92.70;48.47;;;;;;;15.93;54.78;98740.34;5094622;28;20483;-69
2021/06/09 04:02:51;;;;;;;89.72;49.42;;;;;;;15.89;54.86;98744.09;5094071;28;20024;-68
2021/06/09 04:05:19;;;;;;;93.13;51.92;;;;;;;15.91;55.50;98747.34;5094468;28;20028;-69
2021/06/09 04:07:47;;;;;;;94.47;50.25;;;;;;;15.96;55.21;98743.59;5094145;28;20028;-69
2021/06/09 04:10:14;;;;;;;104.72;55.42;;;;;;;15.97;55.23;98745.22;5094368;28;20055;-69
2021/06/09 04:12:41;;;;;;;129.27;73.15;;;;;;;15.99;55.57;98743.78;5094402;28;20036;-68
2021/06/09 04:15:10;;;;;;;134.23;78.15;;;;;;;16.02;55.44;98736.78;5075970;28;20056;-68
2021/06/09 04:17:39;;;;;;;158.32;89.15;;;;;;;16.03;55.57;98749.47;5094001;28;20468;-69
2021/06/09 04:20:07;;;;;;;147.90;83.28;;;;;;;16.01;55.73;98740.66;5093995;28;20024;-69
2021/06/09 04:22:33;;;;;;;155.00;88.25;;;;;;;16.00;55.66;98741.81;5093926;28;20379;-68
2021/06/09 04:25:01;;;;;;;167.18;90.50;;;;;;;16.01;56.31;98741.50;5094024;28;20052;-69
2021/06/09 04:27:29;;;;;;;150.98;83.55;;;;;;;16.03;56.16;98749.47;5075674;28;20484;-68
2021/06/09 04:29:56;;;;;;;171.55;93.63;;;;;;;16.05;56.78;98748.00;5093868;28;20035;-68
2021/06/09 04:32:22;;;;;;;177.65;94.32;;;;;;;16.15;56.50;98749.63;5093890;28;20032;-69
2021/06/09 04:34:53;;;;;;;186.88;94.15;;;;;;;16.21;56.56;98736.44;5093818;28;20084;-69
2021/06/09 04:37:20;;;;;;;234.85;110.78;;;;;;;16.28;56.66;98742.28;5093660;28;20035;-69
2021/06/09 04:39:47;;;;;;;227.68;104.95;;;;;;;16.31;56.12;98752.72;5094045;28;20034;-69
2021/06/09 04:42:12;;;;;;;236.25;107.32;;;;;;;16.40;56.21;98749.13;5093774;28;20067;-68
2021/06/09 04:44:39;;;;;;;239.70;105.82;;;;;;;16.44;56.48;98758.41;5093696;28;20543;-68
2021/06/09 04:47:06;;;;;;;245.00;106.85;;;;;;;16.50;55.81;98751.56;5093669;28;20028;-68
2021/06/09 04:49:43;;;;;;;241.60;105.15;;;;;;;16.58;56.29;98747.94;5092387;28;20035;-68
2021/06/09 04:52:10;;;;;;;261.52;111.18;;;;;;;16.64;56.31;98745.81;5093643;28;20032;-69
2021/06/09 04:54:36;;;;;;;287.42;122.32;;;;;;;16.69;56.34;98744.81;5093861;28;20028;-68
2021/06/09 04:57:07;;;;;;;281.88;117.78;;;;;;;16.76;56.01;98745.91;5093468;28;20392;-69
2021/06/09 04:59:32;;;;;;;213.20;86.72;;;;;;;16.84;56.05;98749.81;5093478;28;20456;-68
2021/06/09 05:01:58;;;;;;;221.43;90.22;;;;;;;16.89;56.39;98755.19;5093485;28;20024;-68
2021/06/09 05:04:23;;;;;;;184.65;74.05;;;;;;;16.93;56.42;98750.59;5093503;28;20392;-68
2021/06/09 05:06:49;;;;;;;191.65;79.70;;;;;;;17.00;56.55;98752.06;5093547;28;20031;-68
2021/06/09 05:09:14;;;;;;;172.98;71.57;;;;;;;17.06;56.30;98753.50;5093602;28;20024;-68
2021/06/09 05:12:16;;;;;;;174.82;75.32;;;;;;;17.14;56.16;98758.22;5093365;28;20030;-68
2021/06/09 05:14:57;;;;;;;144.07;57.95;;;;;;;17.23;56.33;98759.00;5079194;28;20036;-68
2021/06/09 05:17:27;;;;;;;137.73;55.22;;;;;;;17.31;55.96;98760.09;5093488;28;20056;-68
2021/06/09 05:19:56;;;;;;;121.80;50.25;;;;;;;17.38;56.04;98754.00;5093376;28;20020;-67
2021/06/09 05:22:39;;;;;;;122.97;50.92;;;;;;;17.43;56.16;98759.38;5093523;28;20379;-68
2021/06/09 05:25:06;;;;;;;99.45;41.83;;;;;;;17.50;56.08;98765.19;5093396;28;20048;-68
2021/06/09 05:27:33;;;;;;;88.30;39.00;;;;;;;17.58;55.98;98765.50;5093054;28;20107;-68
2021/06/09 05:30:01;;;;;;;119.05;49.55;;;;;;;17.65;55.91;98763.00;5093160;28;20486;-68
2021/06/09 05:32:28;;;;;;;91.78;39.70;;;;;;;17.75;55.85;98764.56;5093358;28;20051;-68
2021/06/09 05:34:55;;;;;;;66.82;32.05;;;;;;;17.88;55.71;98771.00;5093228;28;20050;-68
2021/06/09 05:37:21;;;;;;;62.67;30.55;;;;;;;17.93;55.61;98757.72;5092856;28;20376;-67
2021/06/09 05:39:46;;;;;;;66.35;31.75;;;;;;;17.98;55.59;98765.84;5074622;28;20024;-67
2021/06/09 05:42:14;;;;;;;64.28;31.42;;;;;;;18.04;55.44;98763.72;5092833;28;20026;-67
2021/06/09 05:44:44;;;;;;;62.00;29.02;;;;;;;18.06;55.32;98771.69;5093106;28;20428;-68
2021/06/09 05:47:10;;;;;;;61.35;28.95;;;;;;;18.09;55.54;98769.09;5093110;28;20031;-68
2021/06/09 05:49:36;;;;;;;61.50;29.98;;;;;;;18.19;55.17;98776.19;5092672;28;20381;-68
2021/06/09 05:52:01;;;;;;;63.05;29.70;;;;;;;18.26;55.36;98779.22;5092697;28;20043;-68
2021/06/09 05:54:33;;;;;;;58.53;28.55;;;;;;;18.36;55.26;98774.38;5092771;28;20111;-67
2021/06/09 05:57:00;;;;;;;54.55;27.38;;;;;;;18.40;55.39;98778.94;5092796;28;20056;-67
2021/06/09 05:59:26;;;;;;;58.10;26.13;;;;;;;18.45;55.31;98783.44;5092803;28;20059;-67
2021/06/09 06:01:51;;;;;;;48.50;26.00;;;;;;;18.51;55.12;98779.31;5092792;28;20075;-68
2021/06/09 06:04:17;;;;;;;45.65;22.55;;;;;;;18.58;55.02;98778.75;5092923;28;20016;-68
2021/06/09 06:06:46;;;;;;;48.42;24.58;;;;;;;18.63;55.27;98791.63;5092836;28;20077;-68
2021/06/09 06:09:11;;;;;;;44.47;24.55;;;;;;;18.69;54.99;98779.94;5092631;28;20032;-68
2021/06/09 06:11:38;;;;;;;41.35;22.23;;;;;;;18.74;54.79;98793.63;5057676;28;20378;-68
2021/06/09 06:14:06;;;;;;;40.70;22.10;;;;;;;18.75;54.66;98788.88;5092671;28;20016;-67
2021/06/09 06:16:32;;;;;;;42.72;21.30;;;;;;;18.82;54.54;98793.88;5092661;28;20103;-68
2021/06/09 06:18:57;;;;;;;32.72;20.00;;;;;;;18.88;54.74;98793.31;5092748;28;20095;-68
2021/06/09 06:21:23;;;;;;;36.45;21.08;;;;;;;18.97;54.59;98787.69;5092775;28;20028;-68
2021/06/09 06:23:49;;;;;;;33.15;20.17;;;;;;;19.01;54.40;98790.59;5092863;28;20447;-68
2021/06/09 06:26:17;;;;;;;34.40;20.70;;;;;;;19.09;54.45;98786.91;5092634;28;20020;-68
2021/06/09 06:28:43;;;;;;;32.35;17.65;;;;;;;19.14;54.20;98797.81;5086141;28;20020;-68
2021/06/09 06:31:14;;;;;;;35.53;20.75;;;;;;;19.16;54.01;98789.91;5091004;28;20103;-67
2021/06/09 06:33:41;;;;;;;39.30;20.95;;;;;;;19.20;53.93;98792.81;5090909;28;20476;-67
2021/06/09 06:36:09;;;;;;;31.30;18.75;;;;;;;19.27;54.12;98792.25;5073507;28;20499;-67
2021/06/09 06:38:37;;;;;;;33.72;19.77;;;;;;;19.33;54.31;98796.41;5091239;28;20016;-67
2021/06/09 06:41:04;;;;;;;32.15;18.80;;;;;;;19.41;54.00;98791.91;5090947;28;20017;-67
2021/06/09 06:43:30;;;;;;;30.88;18.02;;;;;;;19.48;53.94;98789.34;5091088;28;20552;-68
2021/06/09 06:45:55;;;;;;;34.75;20.05;;;;;;;19.53;53.68;98786.34;5091163;28;20110;-68
2021/06/09 06:48:22;;;;;;;34.67;19.67;;;;;;;19.59;53.60;98789.69;5091227;28;20023;-68
2021/06/09 06:50:49;;;;;;;30.33;18.50;;;;;;;19.65;53.69;98785.50;5092909;28;20059;-67
2021/06/09 06:53:15;;;;;;;29.83;18.45;;;;;;;19.71;53.73;98784.13;5095227;28;20426;-66
2021/06/09 06:55:40;;;;;;;30.75;18.13;;;;;;;19.76;53.44;98789.44;5095063;28;20055;-67
2021/06/09 06:58:07;;;;;;;34.67;19.58;;;;;;;19.82;53.30;98795.56;5094562;28;20020;-66
2021/06/09 07:00:32;;;;;;;31.38;18.58;;;;;;;19.90;53.38;98791.09;5094992;28;20031;-68
2021/06/09 07:03:01;;;;;;;28.92;17.58;;;;;;;19.93;53.00;98793.97;5094703;28;20030;-67
2021/06/09 07:05:29;;;;;;;31.10;18.30;;;;;;;19.97;53.07;98798.84;5094892;28;20559;-68
2021/06/09 07:07:57;;;;;;;36.42;18.92;;;;;;;20.01;53.07;98792.19;5094290;28;20020;-67
2021/06/09 07:10:23;;;;;;;31.83;18.80;;;;;;;20.09;53.08;98793.25;5094740;28;20024;-67
2021/06/09 07:12:49;;;;;;;33.67;19.13;;;;;;;20.13;52.71;98787.78;5094379;28;20042;-67
2021/06/09 07:15:18;;;;;;;30.58;18.10;;;;;;;20.17;52.81;98789.53;5094716;28;20077;-67
2021/06/09 07:17:47;;;;;;;33.22;17.73;;;;;;;20.26;52.96;98794.13;5094575;28;20059;-67
2021/06/09 07:20:13;;;;;;;40.17;20.92;;;;;;;20.31;52.79;98791.09;5094524;28;20043;-67
2021/06/09 07:22:40;;;;;;;35.75;20.40;;;;;;;20.37;52.83;98786.88;5094432;28;20028;-67
2021/06/09 07:25:07;;;;;;;33.15;19.48;;;;;;;20.41;52.60;98787.81;5091368;28;20032;-67
2021/06/09 07:27:38;;;;;;;29.67;17.17;;;;;;;20.44;52.84;98789.88;5100008;28;20028;-67
2021/06/09 07:30:07;;;;;;;30.88;15.77;;;;;;;20.50;52.77;98796.00;5078222;28;20101;-66
2021/06/09 07:32:36;;;;;;;27.85;16.38;;;;;;;20.57;52.29;98795.41;5097856;28;20031;-67
2021/06/09 07:35:03;;;;;;;29.95;16.42;;;;;;;20.62;51.95;98795.94;5096247;28;20059;-67
2021/06/09 07:37:30;;;;;;;27.70;15.35;;;;;;;20.65;51.84;98802.78;5093173;28;20028;-69
2021/06/09 07:39:58;;;;;;;22.35;14.20;;;;;;;20.67;51.87;98795.69;5087718;28;20031;-67
2021/06/09 07:42:27;;;;;;;23.08;13.50;;;;;;;20.71;51.69;98801.34;5095541;28;20036;-66
2021/06/09 07:45:04;;;;;;;23.83;14.50;;;;;;;20.76;51.39;98798.31;5095490;28;20392;-67
2021/06/09 07:47:31;;;;;;;30.02;14.93;;;;;;;20.82;51.78;98790.53;5092978;28;20540;-67
2021/06/09 07:49:58;;;;;;;26.52;14.70;;;;;;;20.91;51.84;98802.31;5091118;28;20035;-67
2021/06/09 07:52:26;;;;;;;29.85;16.15;;;;;;;20.94;51.74;98798.03;5096611;28;20028;-67
2021/06/09 07:54:53;;;;;;;75.28;42.63;;;;;;;21.00;51.73;98801.34;5096635;28;20027;-66
2021/06/09 07:57:19;;;;;;;28.00;16.23;;;;;;;21.07;52.07;98804.34;5095371;28;20181;-65
2021/06/09 07:59:44;;;;;;;25.33;17.85;;;;;;;21.17;51.78;98802.97;5095840;28;20024;-67
2021/06/09 08:02:12;;;;;;;29.50;15.93;;;;;;;21.21;51.73;98799.09;5095717;28;20073;-67
2021/06/09 08:04:38;;;;;;;31.20;19.13;;;;;;;21.25;51.97;98800.00;5079446;28;20012;-67
2021/06/09 08:07:04;;;;;;;26.60;16.58;;;;;;;21.32;52.07;98806.94;5091459;28;20484;-67
2021/06/09 08:09:30;;;;;;;28.13;15.73;;;;;;;21.35;51.47;98798.69;5076175;28;20015;-68
2021/06/09 08:11:58;;;;;;;30.33;16.55;;;;;;;21.41;51.38;98810.38;5094709;28;20031;-67
2021/06/09 08:14:24;;;;;;;25.85;15.95;;;;;;;21.45;51.18;98805.69;5092050;28;20031;-67
2021/06/09 08:16:49;;;;;;;26.98;16.08;;;;;;;21.53;51.37;98807.50;5092122;28;20024;-69
2021/06/09 08:19:15;;;;;;;42.58;26.15;;;;;;;21.59;51.14;98799.63;5091736;28;20028;-67
2021/06/09 08:21:41;;;;;;;30.65;15.18;;;;;;;21.65;50.73;98798.22;5091954;28;20024;-68
2021/06/09 08:24:07;;;;;;;20.45;14.20;;;;;;;21.70;50.59;98800.75;5091489;28;20107;-67
2021/06/09 08:26:33;;;;;;;27.45;16.58;;;;;;;21.78;50.74;98795.31;5091974;28;20028;-67
2021/06/09 08:28:58;;;;;;;30.42;17.33;;;;;;;21.84;50.47;98796.63;5091247;28;20377;-68
2021/06/09 08:31:27;;;;;;;28.50;17.10;;;;;;;21.87;50.29;98795.91;5091730;28;20028;-68
2021/06/09 08:33:55;;;;;;;33.35;16.13;;;;;;;21.95;50.43;98799.69;5091650;28;20559;-69
2021/06/09 08:36:21;;;;;;;30.50;16.25;;;;;;;22.00;50.09;98803.00;5091156;28;20015;-68
2021/06/09 08:38:51;;;;;;;30.75;16.35;;;;;;;22.04;49.82;98797.47;5091212;28;20106;-70
2021/06/09 08:41:18;;;;;;;49.97;24.70;;;;;;;22.08;49.99;98792.78;5093114;28;20184;-68
2021/06/09 08:43:47;;;;;;;41.47;20.48;;;;;;;22.15;49.88;98795.75;5092829;28;20019;-69
2021/06/09 08:46:13;;;;;;;46.30;23.17;;;;;;;22.24;49.83;98798.31;5088534;28;20036;-69
2021/06/09 08:48:41;;;;;;;31.33;16.65;;;;;;;22.28;49.11;98796.41;5089810;28;20032;-68
2021/06/09 08:51:09;;;;;;;32.33;18.00;;;;;;;22.33;48.74;98797.28;5091026;28;20052;-69
2021/06/09 08:53:38;;;;;;;44.45;21.80;;;;;;;22.38;49.07;98791.41;5091551;28;20042;-69
2021/06/09 08:56:04;;;;;;;57.25;23.85;;;;;;;22.43;48.57;98794.75;5090329;28;20531;-67
2021/06/09 08:58:30;;;;;;;24.63;15.35;;;;;;;22.43;47.96;98794.75;5089830;28;20132;-68
2021/06/09 09:00:56;;;;;;;28.17;14.20;;;;;;;22.48;47.91;98790.03;5089560;28;20028;-69
2021/06/09 09:03:21;;;;;;;19.70;12.80;;;;;;;22.54;48.16;98791.38;5090070;28;20111;-69
2021/06/09 09:05:47;;;;;;;18.77;12.65;;;;;;;22.58;46.74;98790.28;5098867;28;20455;-68
2021/06/09 09:08:12;;;;;;;27.73;13.63;;;;;;;22.66;47.07;98788.41;5091141;28;20058;-68
2021/06/09 09:10:38;;;;;;;27.48;13.35;;;;;;;22.69;46.94;98789.66;5091500;28;20074;-68
2021/06/09 09:13:05;;;;;;;23.08;12.20;;;;;;;22.77;45.58;98794.22;5089890;28;20039;-68
2021/06/09 09:15:30;;;;;;;30.80;12.80;;;;;;;22.83;46.24;98798.31;5091362;28;20476;-69
2021/06/09 09:17:58;;;;;;;20.80;12.10;;;;;;;22.90;45.43;98803.22;5093036;28;20028;-68
2021/06/09 09:20:25;;;;;;;18.63;10.98;;;;;;;22.93;44.66;98788.50;5093289;28;20458;-68
2021/06/09 09:22:52;;;;;;;22.98;10.88;;;;;;;22.97;44.42;98794.97;5091168;28;20111;-68
2021/06/09 09:25:21;;;;;;;19.77;12.70;;;;;;;23.05;45.25;98795.91;5089972;28;20073;-67
2021/06/09 09:28:04;;;;;;;24.90;14.10;;;;;;;23.11;44.61;98790.81;5091551;28;20032;-68
2021/06/09 09:30:33;;;;;;;24.90;13.45;;;;;;;23.15;45.16;98786.09;5089272;28;20373;-68
2021/06/09 09:33:08;;;;;;;26.35;15.25;;;;;;;23.22;45.51;98796.59;5090037;28;20032;-68
2021/06/09 09:35:40;;;;;;;31.40;15.48;;;;;;;23.28;46.01;98795.16;5087103;28;20028;-69
2021/06/09 09:38:14;;;;;;;30.92;15.68;;;;;;;23.38;45.59;98797.31;5089656;28;20639;-68
2021/06/09 09:40:58;;;;;;;30.65;15.80;;;;;;;23.40;45.07;98792.16;5071277;28;20032;-67
2021/06/09 09:43:53;;;;;;;26.70;14.68;;;;;;;23.48;45.17;98793.06;5088855;28;20028;-68
2021/06/09 09:46:34;;;;;;;22.95;13.27;;;;;;;23.52;44.04;98795.91;5081793;28;20124;-67
2021/06/09 09:49:04;;;;;;;29.50;16.10;;;;;;;23.55;44.49;98792.38;5090215;28;20122;-68
2021/06/09 09:51:32;;;;;;;35.58;16.85;;;;;;;23.59;44.56;98782.84;5089798;28;20047;-69
2021/06/09 09:54:00;;;;;;;29.67;16.05;;;;;;;23.68;44.36;98782.59;5089368;28;20024;-68
2021/06/09 09:56:30;;;;;;;26.92;15.02;;;;;;;23.76;44.72;98778.72;5090059;28;20048;-68
2021/06/09 09:58:59;;;;;;;29.05;15.80;;;;;;;23.87;44.40;98786.44;5089563;28;20032;-65
2021/06/09 10:01:25;;;;;;;;;;;;;;;23.95;44.41;98793.75;5091568;28;20236;-68
2021/06/09 10:03:53;;;;;;;23.70;14.15;;;;;;;23.95;43.67;98788.16;5090120;28;20611;-68
2021/06/09 10:06:21;;;;;;;23.70;14.15;;;;;;;23.98;43.32;98787.44;5090876;28;20028;-67
2021/06/09 10:08:46;;;;;;;28.38;13.73;;;;;;;24.03;43.08;98780.72;5089026;28;20021;-69
2021/06/09 10:11:13;;;;;;;26.85;13.60;;;;;;;24.05;42.75;98776.34;5088377;28;20020;-68
2021/06/09 10:13:39;;;;;;;23.05;13.07;;;;;;;24.09;42.88;98779.16;5089772;28;20039;-68
2021/06/09 10:16:26;;;;;;;22.17;13.00;;;;;;;24.15;43.32;98776.84;5092499;28;20024;-68
2021/06/09 10:19:07;;;;;;;26.35;14.02;;;;;;;24.17;43.06;98777.28;5071774;28;20058;-68
2021/06/09 10:21:41;;;;;;;30.70;15.73;;;;;;;24.06;42.49;98777.13;5090665;28;20080;-68
2021/06/09 10:24:08;;;;;;;22.08;13.38;;;;;;;23.90;42.01;98769.69;5090729;28;20119;-69
2021/06/09 10:26:34;;;;;;;28.83;14.73;;;;;;;23.86;42.76;98780.03;5092034;28;20115;-68
2021/06/09 10:29:14;;;;;;;20.00;13.13;;;;;;;23.86;43.16;98776.41;5096935;28;20035;-70
2021/06/09 10:31:49;;;;;;;20.13;11.85;;;;;;;23.86;42.54;98780.03;5094504;28;20064;-69
2021/06/09 10:34:15;;;;;;;21.80;12.45;;;;;;;23.94;42.99;98781.75;5093083;28;20039;-68
2021/06/09 10:36:49;;;;;;;20.83;13.27;;;;;;;24.00;42.43;98771.06;5096965;28;20008;-68
2021/06/09 10:39:16;;;;;;;20.30;12.52;;;;;;;24.01;41.06;98766.28;5096899;28;20035;-67
2021/06/09 10:41:45;;;;;;;21.00;12.38;;;;;;;24.06;40.95;98766.75;5096758;28;20020;-68
2021/06/09 10:44:13;;;;;;;16.98;11.90;;;;;;;24.09;40.96;98770.75;5094721;28;20032;-69
2021/06/09 10:46:42;;;;;;;21.45;13.32;;;;;;;24.16;40.57;98761.66;5094261;28;20035;-69
2021/06/09 10:49:08;;;;;;;;;;;;;;;24.21;41.14;98762.13;5074265;28;20116;-69
2021/06/09 10:51:33;;;;;;;15.80;11.57;;;;;;;24.24;40.63;98763.38;5091711;28;20007;-68
2021/06/09 10:54:03;;;;;;;27.38;12.65;;;;;;;24.27;40.34;98754.19;5093463;28;20043;-69
2021/06/09 10:56:29;;;;;;;19.15;11.88;;;;;;;24.28;39.92;98749.41;5092404;28;20070;-70
2021/06/09 10:58:55;;;;;;;15.45;10.00;;;;;;;24.26;39.34;98758.16;5095548;28;20020;-68
2021/06/09 11:01:23;;;;;;;23.55;12.10;;;;;;;24.33;40.18;98751.84;5094072;28;20077;-69
2021/06/09 11:03:49;;;;;;;15.93;11.48;;;;;;;24.42;39.20;98757.16;5109348;27;20505;-68
2021/06/09 11:06:15;;;;;;;16.77;11.57;;;;;;;24.47;39.31;98751.22;5094340;28;20031;-68
2021/06/09 11:08:40;;;;;;;17.90;11.68;;;;;;;24.55;39.95;98752.91;5076188;28;20047;-67
2021/06/09 11:11:19;;;;;;;22.30;12.18;;;;;;;24.68;39.75;98750.66;5098200;28;20028;-67
2021/06/09 11:13:47;;;;;;;26.50;15.38;;;;;;;24.72;39.42;98745.91;5097844;28;21477;-68
2021/06/09 11:16:15;;;;;;;23.17;13.02;;;;;;;24.72;39.08;98759.94;5092977;28;20085;-68
2021/06/09 11:18:43;;;;;;;22.17;14.27;;;;;;;24.73;39.05;98752.31;5093105;28;20070;-67
2021/06/09 11:21:12;;;;;;;23.42;14.63;;;;;;;24.76;39.74;98752.38;5093702;28;20032;-68
2021/06/09 11:23:40;;;;;;;21.73;14.32;;;;;;;24.82;39.55;98747.19;5092888;28;20036;-68
2021/06/09 11:26:22;;;;;;;26.52;14.88;;;;;;;24.86;39.62;98745.25;5092623;28;20484;-66